createdAt,value
2017-12-24T00:00:10.412Z,23.10
2017-12-24T00:01:10.393Z,22.30
2017-12-24T00:02:10.376Z,23.10
2017-12-24T00:03:10.358Z,24.10
2017-12-24T00:04:10.346Z,24.90
2017-12-24T00:05:10.319Z,23.20
2017-12-24T00:06:10.298Z,24.00
2017-12-24T00:07:10.292Z,20.10
2017-12-24T00:08:10.261Z,22.70
2017-12-24T00:09:10.243Z,23.30
2017-12-24T00:10:10.222Z,22.70
2017-12-24T00:11:10.205Z,24.70
2017-12-24T00:12:10.197Z,24.30
2017-12-24T00:13:10.168Z,23.60
2017-12-24T00:14:10.148Z,22.90
2017-12-24T00:15:10.130Z,23.20
2017-12-24T00:16:10.111Z,22.70
2017-12-24T00:17:10.089Z,23.50
2017-12-24T00:18:10.071Z,23.50
2017-12-24T00:19:10.050Z,21.60
2017-12-24T00:20:10.042Z,23.40
2017-12-24T00:21:10.014Z,22.30
2017-12-24T00:22:09.997Z,23.10
2017-12-24T00:23:09.983Z,24.10
2017-12-24T00:24:09.961Z,23.10
2017-12-24T00:25:09.948Z,24.50
2017-12-24T00:26:09.920Z,24.70
2017-12-24T00:27:09.900Z,24.50
2017-12-24T00:28:09.878Z,25.00
2017-12-24T00:29:09.859Z,26.40
2017-12-24T00:30:09.844Z,25.20
2017-12-24T00:31:09.819Z,26.20
2017-12-24T00:32:09.804Z,27.20
2017-12-24T00:33:09.780Z,27.50
2017-12-24T00:34:09.761Z,26.60
2017-12-24T00:35:09.740Z,26.70
2017-12-24T00:36:09.722Z,25.80
2017-12-24T00:37:09.706Z,27.30
2017-12-24T00:38:09.691Z,25.60
2017-12-24T00:39:09.669Z,27.30
2017-12-24T00:40:09.652Z,25.10
2017-12-24T00:41:09.629Z,27.50
2017-12-24T00:42:09.611Z,27.80
2017-12-24T00:43:09.600Z,27.80
2017-12-24T00:44:09.572Z,27.40
2017-12-24T00:45:09.560Z,26.40
2017-12-24T00:46:09.543Z,27.20
2017-12-24T00:47:09.524Z,27.80
2017-12-24T00:48:09.512Z,29.50
2017-12-24T00:49:09.479Z,27.10
2017-12-24T00:50:09.461Z,30.30
2017-12-24T00:51:09.438Z,27.80
2017-12-24T00:52:09.428Z,26.80
2017-12-24T00:53:09.401Z,28.60
2017-12-24T00:54:09.383Z,29.00
2017-12-24T00:55:09.363Z,28.00
2017-12-24T00:56:09.342Z,28.60
2017-12-24T00:57:09.335Z,29.70
2017-12-24T00:58:09.303Z,27.40
2017-12-24T00:59:09.290Z,29.80
2017-12-24T01:00:09.265Z,29.60
2017-12-24T01:01:09.249Z,30.20
2017-12-24T01:02:09.225Z,28.90
2017-12-24T01:03:09.209Z,30.90
2017-12-24T01:04:09.192Z,31.20
2017-12-24T01:05:09.178Z,32.20
2017-12-24T01:06:09.154Z,31.20
2017-12-24T01:07:09.134Z,33.20
2017-12-24T01:08:09.119Z,28.40
2017-12-24T01:09:09.101Z,30.10
2017-12-24T01:10:09.076Z,32.50
2017-12-24T01:11:09.060Z,29.40
2017-12-24T01:12:09.040Z,30.00
2017-12-24T01:13:09.030Z,29.20
2017-12-24T01:14:08.999Z,30.50
2017-12-24T01:15:08.982Z,29.80
2017-12-24T01:16:08.963Z,32.10
2017-12-24T01:17:08.944Z,31.10
2017-12-24T01:18:08.931Z,31.50
2017-12-24T01:19:08.906Z,31.40
2017-12-24T01:20:08.884Z,32.80
2017-12-24T01:21:08.869Z,33.10
2017-12-24T01:22:08.853Z,30.00
2017-12-24T01:23:08.829Z,32.10
2017-12-24T01:24:08.816Z,31.90
2017-12-24T01:25:08.794Z,31.00
2017-12-24T01:26:08.771Z,32.70
2017-12-24T01:27:08.753Z,29.70
2017-12-24T01:28:08.742Z,34.20
2017-12-24T01:29:08.728Z,30.30
2017-12-24T01:30:08.698Z,33.40
2017-12-24T01:31:08.678Z,32.50
2017-12-24T01:32:08.663Z,32.20
2017-12-24T01:33:08.647Z,31.10
2017-12-24T01:34:08.629Z,32.40
2017-12-24T01:35:08.605Z,32.40
2017-12-24T01:36:08.589Z,32.40
2017-12-24T01:37:08.568Z,31.40
2017-12-24T01:38:08.549Z,33.10
2017-12-24T01:39:08.524Z,31.70
2017-12-24T01:40:08.511Z,32.70
2017-12-24T01:41:08.492Z,32.70
2017-12-24T01:42:08.471Z,36.60
2017-12-24T01:43:08.459Z,33.10
2017-12-24T01:44:08.434Z,30.80
2017-12-24T01:45:08.420Z,31.80
2017-12-24T01:46:08.407Z,30.10
2017-12-24T01:47:08.376Z,30.70
2017-12-24T01:48:08.360Z,34.20
2017-12-24T01:49:08.340Z,31.70
2017-12-24T01:50:08.322Z,31.10
2017-12-24T01:51:08.308Z,30.30
2017-12-24T01:52:08.283Z,30.40
2017-12-24T01:53:08.268Z,29.10
2017-12-24T01:54:08.248Z,31.00
2017-12-24T01:55:08.228Z,31.50
2017-12-24T01:56:08.209Z,29.70
2017-12-24T01:57:08.187Z,30.40
2017-12-24T01:58:08.168Z,30.30
2017-12-24T01:59:08.159Z,31.00
2017-12-24T02:00:08.138Z,30.20
2017-12-24T02:01:08.120Z,32.20
2017-12-24T02:02:08.100Z,30.70
2017-12-24T02:03:08.082Z,31.10
2017-12-24T02:04:08.059Z,30.30
2017-12-24T02:05:08.038Z,31.30
2017-12-24T02:06:08.019Z,29.70
2017-12-24T02:07:08.001Z,31.50
2017-12-24T02:08:07.988Z,28.80
2017-12-24T02:09:07.963Z,29.60
2017-12-24T02:10:07.948Z,29.60
2017-12-24T02:11:07.928Z,29.90
2017-12-24T02:12:07.905Z,29.80
2017-12-24T02:13:07.889Z,30.10
2017-12-24T02:14:07.870Z,29.30
2017-12-24T02:15:07.848Z,29.50
2017-12-24T02:16:07.833Z,28.20
2017-12-24T02:17:07.815Z,27.60
2017-12-24T02:18:07.801Z,28.80
2017-12-24T02:19:07.778Z,28.40
2017-12-24T02:20:07.758Z,29.70
2017-12-24T02:21:07.738Z,29.70
2017-12-24T02:22:07.722Z,28.90
2017-12-24T02:23:07.698Z,31.00
2017-12-24T02:24:07.682Z,31.80
2017-12-24T02:25:07.668Z,31.50
2017-12-24T02:26:07.648Z,30.00
2017-12-24T02:27:07.626Z,32.00
2017-12-24T02:28:07.608Z,30.00
2017-12-24T02:29:07.585Z,28.80
2017-12-24T02:30:07.573Z,29.20
2017-12-24T02:31:07.546Z,31.30
2017-12-24T02:32:07.531Z,29.90
2017-12-24T02:33:07.577Z,31.70
2017-12-24T02:34:07.493Z,30.90
2017-12-24T02:35:07.471Z,30.80
2017-12-24T02:36:07.455Z,29.40
2017-12-24T02:37:07.439Z,30.30
2017-12-24T02:38:07.417Z,30.70
2017-12-24T02:39:07.399Z,31.90
2017-12-24T02:40:07.383Z,29.20
2017-12-24T02:41:07.359Z,32.40
2017-12-24T02:42:07.338Z,30.90
2017-12-24T02:43:07.329Z,28.80
2017-12-24T02:44:07.304Z,32.40
2017-12-24T02:45:07.292Z,31.70
2017-12-24T02:46:07.268Z,31.40
2017-12-24T02:47:07.254Z,31.40
2017-12-24T02:48:07.228Z,35.10
2017-12-24T02:49:07.211Z,31.30
2017-12-24T02:50:07.199Z,35.00
2017-12-24T02:51:07.175Z,34.90
2017-12-24T02:52:07.159Z,31.90
2017-12-24T02:53:07.137Z,35.40
2017-12-24T02:54:07.117Z,31.70
2017-12-24T02:55:07.101Z,30.70
2017-12-24T02:56:07.080Z,31.70
2017-12-24T02:57:07.070Z,31.70
2017-12-24T02:58:07.041Z,31.10
2017-12-24T02:59:07.020Z,33.40
2017-12-24T03:00:07.009Z,33.10
2017-12-24T03:01:06.983Z,29.60
2017-12-24T03:02:06.967Z,30.20
2017-12-24T03:03:06.950Z,31.90
2017-12-24T03:04:06.926Z,31.60
2017-12-24T03:05:06.908Z,31.30
2017-12-24T03:06:06.888Z,29.50
2017-12-24T03:07:06.877Z,29.60
2017-12-24T03:08:06.856Z,32.10
2017-12-24T03:09:06.832Z,33.30
2017-12-24T03:10:06.810Z,30.70
2017-12-24T03:11:06.790Z,34.00
2017-12-24T03:12:06.784Z,34.80
2017-12-24T03:13:06.754Z,31.30
2017-12-24T03:14:06.739Z,33.50
2017-12-24T03:15:06.719Z,28.90
2017-12-24T03:16:06.701Z,30.70
2017-12-24T03:17:06.680Z,31.30
2017-12-24T03:18:06.660Z,32.50
2017-12-24T03:19:06.644Z,31.10
2017-12-24T03:20:06.622Z,30.20
2017-12-24T03:21:06.606Z,31.30
2017-12-24T03:22:06.585Z,31.70
2017-12-24T03:23:06.566Z,30.00
2017-12-24T03:24:06.550Z,30.60
2017-12-24T03:25:06.528Z,31.10
2017-12-24T03:26:06.507Z,30.70
2017-12-24T03:27:06.488Z,29.30
2017-12-24T03:28:06.471Z,31.90
2017-12-24T03:29:06.455Z,31.90
2017-12-24T03:30:06.429Z,32.50
2017-12-24T03:31:06.417Z,30.00
2017-12-24T03:32:06.399Z,29.20
2017-12-24T03:33:06.374Z,27.70
2017-12-24T03:34:06.359Z,30.50
2017-12-24T03:35:06.337Z,27.90
2017-12-24T03:36:06.319Z,31.50
2017-12-24T03:37:06.301Z,30.10
2017-12-24T03:38:06.279Z,30.20
2017-12-24T03:39:06.266Z,29.90
2017-12-24T03:40:06.244Z,25.80
2017-12-24T03:41:06.220Z,30.10
2017-12-24T03:42:06.211Z,31.00
2017-12-24T03:43:06.184Z,30.60
2017-12-24T03:44:06.163Z,29.90
2017-12-24T03:45:06.149Z,30.90
2017-12-24T03:46:06.129Z,28.60
2017-12-24T03:47:06.111Z,30.40
2017-12-24T03:48:06.088Z,32.50
2017-12-24T03:49:06.069Z,33.50
2017-12-24T03:50:06.059Z,31.00
2017-12-24T03:51:06.031Z,33.10
2017-12-24T03:52:06.014Z,33.90
2017-12-24T03:53:05.996Z,31.40
2017-12-24T03:54:05.976Z,34.20
2017-12-24T03:55:05.961Z,32.00
2017-12-24T03:56:05.940Z,31.20
2017-12-24T03:57:05.922Z,33.30
2017-12-24T03:58:05.899Z,31.60
2017-12-24T03:59:05.881Z,32.00
2017-12-24T04:00:05.860Z,34.00
2017-12-24T04:01:05.850Z,31.30
2017-12-24T04:02:05.821Z,31.90
2017-12-24T04:03:05.806Z,29.60
2017-12-24T04:04:05.786Z,28.60
2017-12-24T04:05:05.768Z,29.30
2017-12-24T04:06:05.747Z,28.70
2017-12-24T04:07:05.726Z,30.90
2017-12-24T04:08:05.707Z,31.50
2017-12-24T04:09:05.699Z,29.40
2017-12-24T04:10:05.670Z,28.30
2017-12-24T04:11:05.649Z,30.80
2017-12-24T04:12:05.639Z,31.80
2017-12-24T04:13:05.620Z,27.90
2017-12-24T04:14:05.594Z,29.40
2017-12-24T04:15:05.578Z,29.20
2017-12-24T04:16:05.560Z,29.90
2017-12-24T04:17:05.540Z,28.60
2017-12-24T04:18:05.564Z,30.00
2017-12-24T04:19:05.499Z,28.80
2017-12-24T04:20:05.478Z,29.40
2017-12-24T04:21:05.458Z,28.80
2017-12-24T04:22:05.444Z,28.90
2017-12-24T04:23:05.428Z,26.20
2017-12-24T04:24:05.456Z,29.50
2017-12-24T04:25:05.386Z,24.50
2017-12-24T04:26:05.366Z,25.70
2017-12-24T04:27:05.344Z,26.80
2017-12-24T04:28:05.326Z,25.50
2017-12-24T04:29:05.310Z,26.00
2017-12-24T04:30:05.289Z,27.90
2017-12-24T04:31:05.269Z,26.30
2017-12-24T04:32:05.254Z,27.60
2017-12-24T04:33:05.234Z,26.70
2017-12-24T04:34:05.220Z,24.20
2017-12-24T04:35:05.200Z,28.40
2017-12-24T04:36:05.187Z,26.10
2017-12-24T04:37:05.155Z,25.50
2017-12-24T04:38:05.137Z,28.80
2017-12-24T04:39:05.119Z,25.20
2017-12-24T04:40:05.098Z,24.40
2017-12-24T04:41:05.079Z,23.60
2017-12-24T04:42:05.061Z,26.00
2017-12-24T04:43:05.049Z,27.70
2017-12-24T04:44:05.028Z,28.90
2017-12-24T04:45:05.011Z,26.90
2017-12-24T04:46:04.985Z,24.80
2017-12-24T04:47:04.974Z,25.90
2017-12-24T04:48:04.957Z,26.80
2017-12-24T04:49:04.929Z,26.00
2017-12-24T04:50:04.913Z,27.00
2017-12-24T04:51:04.890Z,27.10
2017-12-24T04:52:04.873Z,26.20
2017-12-24T04:53:04.860Z,27.40
2017-12-24T04:54:04.847Z,25.20
2017-12-24T04:55:04.817Z,25.90
2017-12-24T04:56:04.796Z,27.30
2017-12-24T04:57:04.778Z,26.20
2017-12-24T04:58:04.759Z,25.50
2017-12-24T04:59:04.740Z,25.20
2017-12-24T05:00:04.721Z,25.00
2017-12-24T05:01:04.710Z,25.90
2017-12-24T05:02:04.685Z,26.60
2017-12-24T05:03:04.666Z,27.30
2017-12-24T05:04:04.647Z,28.30
2017-12-24T05:05:04.634Z,25.80
2017-12-24T05:06:04.611Z,27.50
2017-12-24T05:07:04.589Z,26.20
2017-12-24T05:08:04.570Z,25.30
2017-12-24T05:09:04.551Z,26.20
2017-12-24T05:10:04.532Z,25.10
2017-12-24T05:11:04.512Z,24.10
2017-12-24T05:12:04.498Z,27.50
2017-12-24T05:13:04.478Z,27.70
2017-12-24T05:14:04.453Z,28.60
2017-12-24T05:15:04.435Z,28.20
2017-12-24T05:16:04.419Z,28.30
2017-12-24T05:17:04.399Z,27.30
2017-12-24T05:18:04.378Z,26.80
2017-12-24T05:19:04.358Z,27.50
2017-12-24T05:20:04.345Z,26.30
2017-12-24T05:21:04.323Z,24.20
2017-12-24T05:22:04.310Z,27.80
2017-12-24T05:23:04.283Z,27.80
2017-12-24T05:24:04.263Z,29.30
2017-12-24T05:25:04.250Z,25.30
2017-12-24T05:26:04.230Z,27.90
2017-12-24T05:27:04.209Z,26.70
2017-12-24T05:28:04.190Z,26.50
2017-12-24T05:29:04.169Z,27.30
2017-12-24T05:30:04.150Z,27.90
2017-12-24T05:31:04.141Z,28.30
2017-12-24T05:32:04.116Z,28.70
2017-12-24T05:33:04.098Z,27.70
2017-12-24T05:34:04.078Z,28.20
2017-12-24T05:35:04.053Z,29.20
2017-12-24T05:36:04.039Z,28.80
2017-12-24T05:37:04.018Z,26.10
2017-12-24T05:38:03.998Z,29.20
2017-12-24T05:39:03.979Z,26.70
2017-12-24T05:40:03.959Z,28.80
2017-12-24T05:41:03.942Z,29.00
2017-12-24T05:42:03.928Z,28.90
2017-12-24T05:43:03.912Z,28.20
2017-12-24T05:44:03.885Z,27.20
2017-12-24T05:45:03.865Z,29.20
2017-12-24T05:46:03.847Z,27.20
2017-12-24T05:47:03.840Z,27.40
2017-12-24T05:48:03.811Z,29.10
2017-12-24T05:49:03.788Z,32.40
2017-12-24T05:50:03.780Z,28.20
2017-12-24T05:51:03.750Z,29.00
2017-12-24T05:52:03.738Z,28.90
2017-12-24T05:53:03.719Z,28.20
2017-12-24T05:54:03.700Z,28.40
2017-12-24T05:55:03.676Z,27.00
2017-12-24T05:56:03.703Z,27.00
2017-12-24T05:57:03.644Z,28.60
2017-12-24T05:58:03.629Z,28.80
2017-12-24T05:59:03.598Z,30.60
2017-12-24T06:00:03.580Z,27.80
2017-12-24T06:01:03.570Z,27.80
2017-12-24T06:02:03.540Z,27.00
2017-12-24T06:03:03.527Z,29.40
2017-12-24T06:04:03.507Z,27.60
2017-12-24T06:05:03.487Z,30.10
2017-12-24T06:06:03.469Z,26.80
2017-12-24T06:07:03.456Z,27.50
2017-12-24T06:08:03.428Z,28.40
2017-12-24T06:09:03.410Z,26.90
2017-12-24T06:10:03.388Z,28.30
2017-12-24T06:11:03.380Z,28.20
2017-12-24T06:12:03.359Z,28.40
2017-12-24T06:13:03.335Z,27.50
2017-12-24T06:14:03.319Z,27.90
2017-12-24T06:15:03.297Z,28.00
2017-12-24T06:16:03.285Z,26.10
2017-12-24T06:17:03.256Z,26.30
2017-12-24T06:18:03.239Z,27.50
2017-12-24T06:19:03.220Z,26.30
2017-12-24T06:20:03.198Z,25.20
2017-12-24T06:21:03.183Z,26.20
2017-12-24T06:22:03.168Z,26.00
2017-12-24T06:23:03.145Z,29.30
2017-12-24T06:24:03.131Z,26.50
2017-12-24T06:25:03.109Z,27.00
2017-12-24T06:26:03.085Z,27.10
2017-12-24T06:27:03.068Z,27.90
2017-12-24T06:28:03.048Z,27.20
2017-12-24T06:29:03.029Z,30.20
2017-12-24T06:30:03.015Z,25.90
2017-12-24T06:31:02.999Z,28.50
2017-12-24T06:32:02.980Z,29.10
2017-12-24T06:33:02.959Z,29.70
2017-12-24T06:34:02.939Z,29.30
2017-12-24T06:35:02.919Z,29.20
2017-12-24T06:36:02.898Z,28.20
2017-12-24T06:37:02.882Z,29.80
2017-12-24T06:38:02.859Z,30.20
2017-12-24T06:39:02.855Z,29.60
2017-12-24T06:40:02.825Z,28.60
2017-12-24T06:41:02.809Z,30.50
2017-12-24T06:42:02.792Z,30.90
2017-12-24T06:43:02.770Z,30.10
2017-12-24T06:44:02.748Z,34.10
2017-12-24T06:45:02.728Z,30.70
2017-12-24T06:46:02.709Z,26.70
2017-12-24T06:47:02.689Z,32.30
2017-12-24T06:48:02.674Z,30.90
2017-12-24T06:49:02.659Z,31.90
2017-12-24T06:50:02.636Z,31.50
2017-12-24T06:51:02.619Z,30.70
2017-12-24T06:52:02.599Z,29.00
2017-12-24T06:53:02.580Z,30.30
2017-12-24T06:54:02.559Z,29.40
2017-12-24T06:55:02.540Z,29.90
2017-12-24T06:56:02.519Z,29.70
2017-12-24T06:57:02.501Z,28.70
2017-12-24T06:58:02.491Z,29.00
2017-12-24T06:59:02.515Z,26.90
2017-12-24T07:00:02.449Z,27.80
2017-12-24T07:01:02.432Z,28.60
2017-12-24T07:02:02.416Z,27.80
2017-12-24T07:03:02.390Z,28.30
2017-12-24T07:04:02.372Z,27.90
2017-12-24T07:05:02.351Z,28.20
2017-12-24T07:06:02.333Z,26.80
2017-12-24T07:07:02.322Z,28.20
2017-12-24T07:08:02.298Z,26.40
2017-12-24T07:09:02.280Z,27.20
2017-12-24T07:10:02.255Z,27.30
2017-12-24T07:11:02.239Z,26.90
2017-12-24T07:12:02.221Z,28.80
2017-12-24T07:13:02.202Z,26.10
2017-12-24T07:14:02.181Z,25.10
2017-12-24T07:15:02.165Z,27.10
2017-12-24T07:16:02.155Z,25.80
2017-12-24T07:17:02.125Z,26.80
2017-12-24T07:18:02.109Z,25.10
2017-12-24T07:19:02.089Z,25.00
2017-12-24T07:20:02.070Z,26.60
2017-12-24T07:21:02.048Z,25.90
2017-12-24T07:22:02.029Z,26.20
2017-12-24T07:23:02.011Z,25.20
2017-12-24T07:24:01.990Z,24.60
2017-12-24T07:25:01.975Z,25.10
2017-12-24T07:26:01.963Z,24.70
2017-12-24T07:27:01.936Z,26.20
2017-12-24T07:28:01.915Z,23.90
2017-12-24T07:29:01.897Z,25.50
2017-12-24T07:30:01.901Z,26.20
2017-12-24T07:31:01.858Z,24.50
2017-12-24T07:32:01.841Z,24.30
2017-12-24T07:33:01.821Z,25.20
2017-12-24T07:34:01.804Z,24.20
2017-12-24T07:35:01.787Z,24.90
2017-12-24T07:36:01.763Z,24.00
2017-12-24T07:37:01.747Z,27.90
2017-12-24T07:38:01.724Z,23.90
2017-12-24T07:39:01.708Z,25.00
2017-12-24T07:40:01.692Z,26.00
2017-12-24T07:41:01.671Z,24.00
2017-12-24T07:42:01.651Z,24.50
2017-12-24T07:43:01.629Z,24.90
2017-12-24T07:44:01.614Z,27.60
2017-12-24T07:45:01.596Z,22.50
2017-12-24T07:46:01.574Z,23.20
2017-12-24T07:47:01.558Z,23.60
2017-12-24T07:48:01.534Z,22.50
2017-12-24T07:49:01.518Z,23.80
2017-12-24T07:50:01.496Z,23.30
2017-12-24T07:51:01.478Z,23.50
2017-12-24T07:52:01.459Z,24.10
2017-12-24T07:53:01.440Z,21.40
2017-12-24T07:54:01.420Z,22.30
2017-12-24T07:55:01.408Z,21.70
2017-12-24T07:56:01.386Z,23.80
2017-12-24T07:57:01.369Z,25.40
2017-12-24T07:58:01.346Z,21.70
2017-12-24T07:59:01.328Z,23.20
2017-12-24T08:00:01.310Z,24.60
2017-12-24T08:01:01.291Z,25.50
2017-12-24T08:02:01.269Z,24.20
2017-12-24T08:03:01.253Z,23.40
2017-12-24T08:04:01.239Z,25.60
2017-12-24T08:05:01.215Z,26.00
2017-12-24T08:06:01.196Z,22.70
2017-12-24T08:07:01.186Z,23.10
2017-12-24T08:08:01.157Z,25.40
2017-12-24T08:09:01.140Z,24.60
2017-12-24T08:10:01.118Z,21.80
2017-12-24T08:11:01.100Z,23.00
2017-12-24T08:12:01.093Z,23.30
2017-12-24T08:13:01.062Z,21.40
2017-12-24T08:14:01.045Z,23.90
2017-12-24T08:15:01.034Z,19.70
2017-12-24T08:16:01.011Z,19.10
2017-12-24T08:17:00.992Z,20.20
2017-12-24T08:18:00.967Z,24.20
2017-12-24T08:19:00.947Z,20.90
2017-12-24T08:20:00.930Z,21.40
2017-12-24T08:21:00.911Z,21.70
2017-12-24T08:22:00.890Z,19.90
2017-12-24T08:23:00.869Z,21.10
2017-12-24T08:24:00.850Z,21.80
2017-12-24T08:25:00.833Z,21.60
2017-12-24T08:26:00.816Z,22.00
2017-12-24T08:27:00.798Z,21.10
2017-12-24T08:28:00.779Z,20.00
2017-12-24T08:29:00.758Z,21.40
2017-12-24T08:30:00.739Z,21.50
2017-12-24T08:31:00.719Z,18.90
2017-12-24T08:32:00.731Z,21.60
2017-12-24T08:33:00.679Z,18.30
2017-12-24T08:34:00.711Z,19.10
2017-12-24T08:35:00.643Z,18.50
2017-12-24T08:36:00.628Z,20.30
2017-12-24T08:37:00.605Z,18.90
2017-12-24T08:38:00.588Z,19.00
2017-12-24T08:39:00.565Z,17.50
2017-12-24T08:40:00.564Z,18.30
2017-12-24T08:41:00.531Z,16.90
2017-12-24T08:42:00.511Z,17.30
2017-12-24T08:43:00.490Z,19.10
2017-12-24T08:44:00.480Z,15.40
2017-12-24T08:45:00.459Z,18.30
2017-12-24T08:46:00.432Z,17.30
2017-12-24T08:47:00.413Z,17.60
2017-12-24T08:48:00.401Z,16.60
2017-12-24T08:49:00.379Z,17.00
2017-12-24T08:50:00.408Z,16.10
2017-12-24T08:51:00.344Z,18.00
2017-12-24T08:52:00.320Z,18.20
2017-12-24T08:53:00.296Z,17.20
2017-12-24T08:54:00.280Z,15.30
2017-12-24T08:55:00.318Z,16.80
2017-12-24T08:56:00.239Z,17.70
2017-12-24T08:57:00.222Z,17.70
2017-12-24T08:58:00.204Z,15.10
2017-12-24T08:59:00.184Z,15.20
2017-12-24T09:00:00.165Z,16.20
2017-12-24T09:01:00.144Z,19.30
2017-12-24T09:02:00.130Z,18.10
2017-12-24T09:03:00.119Z,19.50
2017-12-24T09:04:00.088Z,17.00
2017-12-24T09:05:00.074Z,18.00
2017-12-24T09:06:00.057Z,17.10
2017-12-24T09:07:00.035Z,17.90
2017-12-24T09:08:00.015Z,18.40
2017-12-24T09:09:00.000Z,16.70
2017-12-24T09:09:59.999Z,15.90
2017-12-24T09:10:59.962Z,17.10
2017-12-24T09:11:59.952Z,19.50
2017-12-24T09:13:59.901Z,17.10
2017-12-24T09:14:59.887Z,17.40
2017-12-24T09:15:59.863Z,15.40
2017-12-24T09:16:59.851Z,18.80
2017-12-24T09:17:59.829Z,17.90
2017-12-24T09:18:59.813Z,16.70
2017-12-24T09:19:59.786Z,17.30
2017-12-24T09:20:59.768Z,18.60
2017-12-24T09:21:59.753Z,18.70
2017-12-24T09:22:59.730Z,18.00
2017-12-24T09:23:59.706Z,19.10
2017-12-24T09:24:59.697Z,16.60
2017-12-24T09:25:59.669Z,17.20
2017-12-24T09:26:59.653Z,17.90
2017-12-24T09:27:59.641Z,16.30
2017-12-24T09:28:59.629Z,15.00
2017-12-24T09:29:59.599Z,17.10
2017-12-24T09:30:59.574Z,18.30
2017-12-24T09:31:59.557Z,17.30
2017-12-24T09:32:59.543Z,17.90
2017-12-24T09:33:59.526Z,15.60
2017-12-24T09:34:59.508Z,16.50
2017-12-24T09:35:59.480Z,16.50
2017-12-24T09:36:59.465Z,18.20
2017-12-24T09:37:59.450Z,17.30
2017-12-24T09:38:59.424Z,15.70
2017-12-24T09:39:59.405Z,17.10
2017-12-24T09:40:59.385Z,15.30
2017-12-24T09:41:59.369Z,18.00
2017-12-24T09:42:59.351Z,15.30
2017-12-24T09:43:59.329Z,14.70
2017-12-24T09:44:59.312Z,15.40
2017-12-24T09:45:59.290Z,16.80
2017-12-24T09:46:59.328Z,15.60
2017-12-24T09:47:59.248Z,17.40
2017-12-24T09:48:59.239Z,15.80
2017-12-24T09:49:59.261Z,15.70
2017-12-24T09:50:59.192Z,14.90
2017-12-24T09:51:59.176Z,14.00
2017-12-24T09:52:59.169Z,16.20
2017-12-24T09:53:59.135Z,16.70
2017-12-24T09:54:59.119Z,15.20
2017-12-24T09:55:59.098Z,13.30
2017-12-24T09:56:59.080Z,15.20
2017-12-24T09:57:59.059Z,13.50
2017-12-24T09:58:59.057Z,13.10
2017-12-24T09:59:59.032Z,13.80
2017-12-24T10:00:59.006Z,13.30
2017-12-24T10:01:58.985Z,15.70
2017-12-24T10:02:58.968Z,13.60
2017-12-24T10:03:58.946Z,13.20
2017-12-24T10:04:58.930Z,14.00
2017-12-24T10:05:58.912Z,11.50
2017-12-24T10:06:58.889Z,11.70
2017-12-24T10:07:58.876Z,13.40
2017-12-24T10:08:58.853Z,13.10
2017-12-24T10:09:58.838Z,13.10
2017-12-24T10:10:58.818Z,12.50
2017-12-24T10:11:58.805Z,10.70
2017-12-24T10:12:58.779Z,12.30
2017-12-24T10:13:58.755Z,13.40
2017-12-24T10:14:58.738Z,12.40
2017-12-24T10:15:58.718Z,12.70
2017-12-24T10:16:58.698Z,13.60
2017-12-24T10:17:58.690Z,12.50
2017-12-24T10:18:58.660Z,10.90
2017-12-24T10:19:58.644Z,11.60
2017-12-24T10:20:58.629Z,11.30
2017-12-24T10:21:58.609Z,11.80
2017-12-24T10:22:58.584Z,10.90
2017-12-24T10:23:58.565Z,11.90
2017-12-24T10:24:58.550Z,10.00
2017-12-24T10:25:58.527Z,11.70
2017-12-24T10:26:58.509Z,10.70
2017-12-24T10:27:58.488Z,12.00
2017-12-24T10:28:58.470Z,11.80
2017-12-24T10:29:58.453Z,10.70
2017-12-24T10:30:58.431Z,10.60
2017-12-24T10:31:58.417Z,11.50
2017-12-24T10:32:58.397Z,10.80
2017-12-24T10:33:58.372Z,10.40
2017-12-24T10:34:58.359Z,10.60
2017-12-24T10:35:58.343Z,10.50
2017-12-24T10:36:58.321Z,10.80
2017-12-24T10:37:58.313Z,11.50
2017-12-24T10:38:58.279Z,10.10
2017-12-24T10:39:58.268Z,11.80
2017-12-24T10:40:58.250Z,11.40
2017-12-24T10:41:58.238Z,10.60
2017-12-24T10:42:58.206Z,11.40
2017-12-24T10:43:58.197Z,12.60
2017-12-24T10:44:58.202Z,10.40
2017-12-24T10:45:58.146Z,11.30
2017-12-24T10:46:58.130Z,11.20
2017-12-24T10:47:58.121Z,11.80
2017-12-24T10:48:58.090Z,11.40
2017-12-24T10:49:58.090Z,10.60
2017-12-24T10:50:58.058Z,10.30
2017-12-24T10:51:58.044Z,11.90
2017-12-24T10:52:58.017Z,9.20
2017-12-24T10:53:57.994Z,10.80
2017-12-24T10:54:57.988Z,10.60
2017-12-24T10:55:57.958Z,10.30
2017-12-24T10:56:57.942Z,10.40
2017-12-24T10:57:57.919Z,10.50
2017-12-24T10:58:57.915Z,9.40
2017-12-24T10:59:57.880Z,10.50
2017-12-24T11:00:57.868Z,10.50
2017-12-24T11:01:57.849Z,9.90
2017-12-24T11:02:57.829Z,12.00
2017-12-24T11:03:57.812Z,10.00
2017-12-24T11:04:57.797Z,9.10
2017-12-24T11:05:57.773Z,12.00
2017-12-24T11:06:57.747Z,12.70
2017-12-24T11:07:57.740Z,11.30
2017-12-24T11:08:57.714Z,11.80
2017-12-24T11:09:57.690Z,11.90
2017-12-24T11:10:57.674Z,11.20
2017-12-24T11:11:57.651Z,10.40
2017-12-24T11:12:57.639Z,9.10
2017-12-24T11:13:57.624Z,13.20
2017-12-24T11:14:57.604Z,11.30
2017-12-24T11:15:57.576Z,10.90
2017-12-24T11:16:57.560Z,12.00
2017-12-24T11:17:57.543Z,12.30
2017-12-24T11:18:57.522Z,12.30
2017-12-24T11:19:57.502Z,12.80
2017-12-24T11:20:57.481Z,12.70
2017-12-24T11:21:57.464Z,12.60
2017-12-24T11:22:57.454Z,11.90
2017-12-24T11:23:57.432Z,17.10
2017-12-24T11:24:57.410Z,11.90
2017-12-24T11:25:57.389Z,13.10
2017-12-24T11:26:57.373Z,13.70
2017-12-24T11:27:57.350Z,12.40
2017-12-24T11:28:57.332Z,12.30
2017-12-24T11:29:57.316Z,12.30
2017-12-24T11:30:57.291Z,12.30
2017-12-24T11:31:57.267Z,12.00
2017-12-24T11:32:57.252Z,11.30
2017-12-24T11:33:57.231Z,11.80
2017-12-24T11:34:57.211Z,12.70
2017-12-24T11:35:57.192Z,11.00
2017-12-24T11:36:57.181Z,13.60
2017-12-24T11:37:57.156Z,12.60
2017-12-24T11:38:57.132Z,12.30
2017-12-24T11:39:57.118Z,13.40
2017-12-24T11:40:57.096Z,11.60
2017-12-24T11:41:57.078Z,11.20
2017-12-24T11:42:57.060Z,12.20
2017-12-24T11:43:57.042Z,13.30
2017-12-24T11:44:57.023Z,11.60
2017-12-24T11:45:57.004Z,14.00
2017-12-24T11:46:56.984Z,13.60
2017-12-24T11:47:56.964Z,12.60
2017-12-24T11:48:56.945Z,11.10
2017-12-24T11:49:56.924Z,12.60
2017-12-24T11:50:56.905Z,12.40
2017-12-24T11:51:56.889Z,9.90
2017-12-24T11:52:56.868Z,9.70
2017-12-24T11:53:56.853Z,11.90
2017-12-24T11:54:56.834Z,12.60
2017-12-24T11:55:56.809Z,13.00
2017-12-24T11:56:56.794Z,13.10
2017-12-24T11:57:56.770Z,13.20
2017-12-24T11:58:56.758Z,10.40
2017-12-24T11:59:56.733Z,13.00
2017-12-24T12:00:56.730Z,12.50
2017-12-24T12:01:56.742Z,11.00
2017-12-24T12:02:56.681Z,10.80
2017-12-24T12:03:56.660Z,11.40
2017-12-24T12:04:56.637Z,11.50
2017-12-24T12:05:56.620Z,11.50
2017-12-24T12:06:56.601Z,10.90
2017-12-24T12:07:56.578Z,10.80
2017-12-24T12:08:56.567Z,9.90
2017-12-24T12:09:56.542Z,10.20
2017-12-24T12:10:56.521Z,11.10
2017-12-24T12:11:56.511Z,11.10
2017-12-24T12:12:56.488Z,9.60
2017-12-24T12:13:56.464Z,9.00
2017-12-24T12:14:56.448Z,10.30
2017-12-24T12:15:56.475Z,10.50
2017-12-24T12:16:56.409Z,9.40
2017-12-24T12:17:56.387Z,10.50
2017-12-24T12:18:56.369Z,9.10
2017-12-24T12:19:56.349Z,9.30
2017-12-24T12:20:56.328Z,10.90
2017-12-24T12:21:56.315Z,11.90
2017-12-24T12:22:56.291Z,10.10
2017-12-24T12:23:56.289Z,10.00
2017-12-24T12:24:56.257Z,10.10
2017-12-24T12:25:56.237Z,10.40
2017-12-24T12:26:56.213Z,9.80
2017-12-24T12:27:56.202Z,9.50
2017-12-24T12:28:56.178Z,10.40
2017-12-24T12:29:56.165Z,9.20
2017-12-24T12:30:56.138Z,10.40
2017-12-24T12:31:56.121Z,9.00
2017-12-24T12:32:56.101Z,10.00
2017-12-24T12:33:56.079Z,9.40
2017-12-24T12:34:56.069Z,8.70
2017-12-24T12:35:56.054Z,9.90
2017-12-24T12:36:56.031Z,10.40
2017-12-24T12:37:56.007Z,10.50
2017-12-24T12:38:55.998Z,12.00
2017-12-24T12:39:55.968Z,10.80
2017-12-24T12:40:55.947Z,12.50
2017-12-24T12:41:55.931Z,12.10
2017-12-24T12:42:55.909Z,13.20
2017-12-24T12:43:55.897Z,14.20
2017-12-24T12:44:55.875Z,12.20
2017-12-24T12:45:55.852Z,10.40
2017-12-24T12:46:55.838Z,13.50
2017-12-24T12:47:55.818Z,11.10
2017-12-24T12:48:55.811Z,12.00
2017-12-24T12:49:55.778Z,12.20
2017-12-24T12:50:55.754Z,10.40
2017-12-24T12:51:55.750Z,10.80
2017-12-24T12:52:55.719Z,11.80
2017-12-24T12:53:55.698Z,10.50